sensor_id;sensor_type;location;lat;lon;timestamp;pressure;altitude;pressure_sealevel;temperature;humidity
62779;BME280;48821;48.796;2.396;2022-12-07T00:00:31;102018.53;;;4.71;66.56
62779;BME280;48821;48.796;2.396;2022-12-07T00:01:43;102015.94;;;4.71;66.42
62779;BME280;48821;48.796;2.396;2022-12-07T00:02:53;102015.06;;;4.71;66.46
62779;BME280;48821;48.796;2.396;2022-12-07T00:04:06;102012.41;;;4.69;66.32
62779;BME280;48821;48.796;2.396;2022-12-07T00:05:16;102013.28;;;4.70;66.53
62779;BME280;48821;48.796;2.396;2022-12-07T00:06:26;102007.19;;;4.68;66.13
62779;BME280;48821;48.796;2.396;2022-12-07T00:07:37;102010.69;;;4.68;66.33
62779;BME280;48821;48.796;2.396;2022-12-07T00:08:48;102016.72;;;4.67;66.66
62779;BME280;48821;48.796;2.396;2022-12-07T00:09:58;102015.84;;;4.67;65.96
62779;BME280;48821;48.796;2.396;2022-12-07T00:11:11;102010.63;;;4.67;66.34
62779;BME280;48821;48.796;2.396;2022-12-07T00:12:22;102009.75;;;4.63;66.29
62779;BME280;48821;48.796;2.396;2022-12-07T00:13:33;102015.84;;;4.64;66.13
62779;BME280;48821;48.796;2.396;2022-12-07T00:14:43;102017.56;;;4.61;65.87
62779;BME280;48821;48.796;2.396;2022-12-07T00:15:53;102008.84;;;4.61;66.13
62779;BME280;48821;48.796;2.396;2022-12-07T00:17:04;102014.94;;;4.61;66.23
62779;BME280;48821;48.796;2.396;2022-12-07T00:18:14;102014.06;;;4.61;66.22
62779;BME280;48821;48.796;2.396;2022-12-07T00:19:24;102013.19;;;4.60;66.25
62779;BME280;48821;48.796;2.396;2022-12-07T00:20:35;102013.19;;;4.60;66.21
62779;BME280;48821;48.796;2.396;2022-12-07T00:21:45;102010.56;;;4.59;66.22
62779;BME280;48821;48.796;2.396;2022-12-07T00:22:55;102006.22;;;4.58;66.39
62779;BME280;48821;48.796;2.396;2022-12-07T00:24:06;102008.81;;;4.58;66.23
62779;BME280;48821;48.796;2.396;2022-12-07T00:25:17;102001.84;;;4.57;66.10
62779;BME280;48821;48.796;2.396;2022-12-07T00:26:35;102007.94;;;4.57;66.29
62779;BME280;48821;48.796;2.396;2022-12-07T00:27:46;101998.34;;;4.55;66.43
62779;BME280;48821;48.796;2.396;2022-12-07T00:28:59;102003.56;;;4.55;65.94
62779;BME280;48821;48.796;2.396;2022-12-07T00:30:10;101999.22;;;4.54;66.14
62779;BME280;48821;48.796;2.396;2022-12-07T00:31:22;102000.06;;;4.53;66.15
62779;BME280;48821;48.796;2.396;2022-12-07T00:32:33;102000.06;;;4.51;66.32
62779;BME280;48821;48.796;2.396;2022-12-07T00:33:44;102004.38;;;4.52;66.35
62779;BME280;48821;48.796;2.396;2022-12-07T00:34:54;102006.09;;;4.50;66.23
62779;BME280;48821;48.796;2.396;2022-12-07T00:36:07;101999.16;;;4.49;66.11
62779;BME280;48821;48.796;2.396;2022-12-07T00:37:18;102001.72;;;4.47;65.95
62779;BME280;48821;48.796;2.396;2022-12-07T00:38:31;102006.09;;;4.48;66.37
62779;BME280;48821;48.796;2.396;2022-12-07T00:39:41;102001.72;;;4.47;66.39
62779;BME280;48821;48.796;2.396;2022-12-07T00:41:10;102001.72;;;4.47;66.46
62779;BME280;48821;48.796;2.396;2022-12-07T00:42:21;102003.47;;;4.47;66.02
62779;BME280;48821;48.796;2.396;2022-12-07T00:43:31;101998.22;;;4.45;66.09
62779;BME280;48821;48.796;2.396;2022-12-07T00:44:41;102003.47;;;4.47;66.18
62779;BME280;48821;48.796;2.396;2022-12-07T00:45:52;101991.28;;;4.44;66.50
62779;BME280;48821;48.796;2.396;2022-12-07T00:47:03;102003.44;;;4.45;66.39
62779;BME280;48821;48.796;2.396;2022-12-07T00:48:13;102002.59;;;4.46;66.39
62779;BME280;48821;48.796;2.396;2022-12-07T00:49:24;102004.34;;;4.47;66.54
62779;BME280;48821;48.796;2.396;2022-12-07T00:50:34;102002.59;;;4.48;66.52
62779;BME280;48821;48.796;2.396;2022-12-07T00:51:44;101996.56;;;4.49;66.93
62779;BME280;48821;48.796;2.396;2022-12-07T00:52:55;101996.56;;;4.50;66.85
62779;BME280;48821;48.796;2.396;2022-12-07T00:54:05;102000.06;;;4.51;66.77
62779;BME280;48821;48.796;2.396;2022-12-07T00:55:15;101995.72;;;4.52;67.18
62779;BME280;48821;48.796;2.396;2022-12-07T00:56:27;101991.41;;;4.54;67.00
62779;BME280;48821;48.796;2.396;2022-12-07T00:57:38;101994.00;;;4.54;66.84
62779;BME280;48821;48.796;2.396;2022-12-07T00:58:59;101988.81;;;4.57;67.40
62779;BME280;48821;48.796;2.396;2022-12-07T01:00:10;101991.41;;;4.57;67.00
62779;BME280;48821;48.796;2.396;2022-12-07T01:01:21;101990.59;;;4.59;67.31
62779;BME280;48821;48.796;2.396;2022-12-07T01:02:31;101992.34;;;4.60;67.29
62779;BME280;48821;48.796;2.396;2022-12-07T01:03:42;101987.16;;;4.62;67.36
62779;BME280;48821;48.796;2.396;2022-12-07T01:04:52;101984.53;;;4.62;67.18
62779;BME280;48821;48.796;2.396;2022-12-07T01:06:02;101986.31;;;4.63;66.99
62779;BME280;48821;48.796;2.396;2022-12-07T01:07:13;101991.56;;;4.66;66.95
62779;BME280;48821;48.796;2.396;2022-12-07T01:08:25;101987.25;;;4.68;67.01
62779;BME280;48821;48.796;2.396;2022-12-07T01:09:35;101981.16;;;4.69;67.41
62779;BME280;48821;48.796;2.396;2022-12-07T01:10:46;101981.19;;;4.71;67.50
62779;BME280;48821;48.796;2.396;2022-12-07T01:11:56;101982.09;;;4.73;67.61
62779;BME280;48821;48.796;2.396;2022-12-07T01:13:07;101975.16;;;4.75;67.29
62779;BME280;48821;48.796;2.396;2022-12-07T01:14:17;101980.38;;;4.77;67.78
62779;BME280;48821;48.796;2.396;2022-12-07T01:15:27;101981.28;;;4.79;67.64
62779;BME280;48821;48.796;2.396;2022-12-07T01:16:38;101975.19;;;4.80;67.85
62779;BME280;48821;48.796;2.396;2022-12-07T01:17:49;101975.25;;;4.83;67.62
62779;BME280;48821;48.796;2.396;2022-12-07T01:19:00;101981.34;;;4.85;67.56
62779;BME280;48821;48.796;2.396;2022-12-07T01:20:11;101977.00;;;4.86;67.37
62779;BME280;48821;48.796;2.396;2022-12-07T01:21:30;101973.56;;;4.88;67.88
62779;BME280;48821;48.796;2.396;2022-12-07T01:22:44;101979.66;;;4.90;68.35
62779;BME280;48821;48.796;2.396;2022-12-07T01:23:57;101978.81;;;4.91;67.70
62779;BME280;48821;48.796;2.396;2022-12-07T01:25:10;101977.94;;;4.92;67.68
62779;BME280;48821;48.796;2.396;2022-12-07T01:26:22;101974.50;;;4.93;67.99
62779;BME280;48821;48.796;2.396;2022-12-07T01:27:34;101981.47;;;4.96;67.50
62779;BME280;48821;48.796;2.396;2022-12-07T01:28:44;101978.00;;;4.97;67.65
62779;BME280;48821;48.796;2.396;2022-12-07T01:29:55;101983.25;;;4.99;67.66
62779;BME280;48821;48.796;2.396;2022-12-07T01:31:08;101977.16;;;5.00;67.86
62779;BME280;48821;48.796;2.396;2022-12-07T01:32:20;101975.44;;;5.02;67.55
62779;BME280;48821;48.796;2.396;2022-12-07T01:33:34;101978.03;;;5.02;67.75
62779;BME280;48821;48.796;2.396;2022-12-07T01:34:47;101978.94;;;5.04;67.60
62779;BME280;48821;48.796;2.396;2022-12-07T01:36:24;101968.53;;;5.05;67.65
62779;BME280;48821;48.796;2.396;2022-12-07T01:37:38;101974.63;;;5.07;67.63
62779;BME280;48821;48.796;2.396;2022-12-07T01:38:51;101971.19;;;5.09;67.23
62779;BME280;48821;48.796;2.396;2022-12-07T01:40:04;101973.78;;;5.09;67.72
62779;BME280;48821;48.796;2.396;2022-12-07T01:41:15;101972.03;;;5.09;67.95
62779;BME280;48821;48.796;2.396;2022-12-07T01:42:25;101976.41;;;5.12;67.22
62779;BME280;48821;48.796;2.396;2022-12-07T01:43:36;101971.19;;;5.12;67.79
62779;BME280;48821;48.796;2.396;2022-12-07T01:46:27;101967.75;;;5.13;67.79
62779;BME280;48821;48.796;2.396;2022-12-07T01:47:38;101965.09;;;5.11;67.59
62779;BME280;48821;48.796;2.396;2022-12-07T01:48:48;101966.84;;;5.14;67.23
62779;BME280;48821;48.796;2.396;2022-12-07T01:49:59;101969.47;;;5.14;67.60
62779;BME280;48821;48.796;2.396;2022-12-07T01:51:11;101976.44;;;5.15;67.51
62779;BME280;48821;48.796;2.396;2022-12-07T01:52:30;101964.28;;;5.15;67.87
62779;BME280;48821;48.796;2.396;2022-12-07T01:53:44;101962.56;;;5.16;67.69
62779;BME280;48821;48.796;2.396;2022-12-07T01:55:02;101971.22;;;5.16;67.60
62779;BME280;48821;48.796;2.396;2022-12-07T01:56:17;101967.75;;;5.14;67.38
62779;BME280;48821;48.796;2.396;2022-12-07T01:57:30;101961.69;;;5.15;67.34
62779;BME280;48821;48.796;2.396;2022-12-07T01:58:41;101956.47;;;5.17;67.28
62779;BME280;48821;48.796;2.396;2022-12-07T01:59:53;101959.06;;;5.15;67.23
62779;BME280;48821;48.796;2.396;2022-12-07T02:01:05;101960.78;;;5.15;67.42
62779;BME280;48821;48.796;2.396;2022-12-07T02:02:23;101956.44;;;5.14;67.08
62779;BME280;48821;48.796;2.396;2022-12-07T02:03:41;101959.03;;;5.14;66.93
62779;BME280;48821;48.796;2.396;2022-12-07T02:04:53;101958.19;;;5.13;67.14
62779;BME280;48821;48.796;2.396;2022-12-07T02:06:05;101960.75;;;5.12;67.40
62779;BME280;48821;48.796;2.396;2022-12-07T02:07:16;101967.69;;;5.11;67.06
62779;BME280;48821;48.796;2.396;2022-12-07T02:08:26;101965.09;;;5.08;67.40
62779;BME280;48821;48.796;2.396;2022-12-07T02:09:37;101966.81;;;5.09;67.07
62779;BME280;48821;48.796;2.396;2022-12-07T02:10:47;101961.59;;;5.07;67.30
62779;BME280;48821;48.796;2.396;2022-12-07T02:11:58;101962.47;;;5.08;67.23
62779;BME280;48821;48.796;2.396;2022-12-07T02:13:12;101957.25;;;5.08;67.18
62779;BME280;48821;48.796;2.396;2022-12-07T02:14:24;101962.47;;;5.08;67.35
62779;BME280;48821;48.796;2.396;2022-12-07T02:16:05;101959.00;;;5.06;67.03
62779;BME280;48821;48.796;2.396;2022-12-07T02:17:28;101966.81;;;5.07;67.19
62779;BME280;48821;48.796;2.396;2022-12-07T02:20:37;101972.88;;;5.05;67.38
62779;BME280;48821;48.796;2.396;2022-12-07T02:23:38;101971.09;;;5.02;67.22
62779;BME280;48821;48.796;2.396;2022-12-07T02:24:59;101971.09;;;5.01;67.27
62779;BME280;48821;48.796;2.396;2022-12-07T02:27:39;101967.59;;;4.99;67.26
62779;BME280;48821;48.796;2.396;2022-12-07T02:30:20;101971.06;;;4.98;67.24
62779;BME280;48821;48.796;2.396;2022-12-07T02:31:31;101969.28;;;4.97;67.66
62779;BME280;48821;48.796;2.396;2022-12-07T02:32:58;101974.53;;;4.98;68.15
62779;BME280;48821;48.796;2.396;2022-12-07T02:39:14;101969.38;;;5.03;68.18
62779;BME280;48821;48.796;2.396;2022-12-07T02:40:36;101973.72;;;5.04;68.13
62779;BME280;48821;48.796;2.396;2022-12-07T02:41:54;101966.78;;;5.04;68.12
62779;BME280;48821;48.796;2.396;2022-12-07T02:43:27;101965.94;;;5.05;68.49
62779;BME280;48821;48.796;2.396;2022-12-07T02:44:38;101962.44;;;5.05;68.23
62779;BME280;48821;48.796;2.396;2022-12-07T02:45:51;101964.19;;;5.06;68.19
62779;BME280;48821;48.796;2.396;2022-12-07T02:47:07;101966.81;;;5.06;67.78
62779;BME280;48821;48.796;2.396;2022-12-07T02:48:20;101978.13;;;5.08;67.61
62779;BME280;48821;48.796;2.396;2022-12-07T02:49:31;101971.16;;;5.07;67.58
62779;BME280;48821;48.796;2.396;2022-12-07T02:50:48;101968.53;;;5.07;67.69
62779;BME280;48821;48.796;2.396;2022-12-07T02:51:58;101968.53;;;5.05;67.59
62779;BME280;48821;48.796;2.396;2022-12-07T02:53:49;101973.75;;;5.05;67.69
62779;BME280;48821;48.796;2.396;2022-12-07T02:54:58;101967.66;;;5.05;67.44
62779;BME280;48821;48.796;2.396;2022-12-07T03:00:49;101970.22;;;5.02;67.54
62779;BME280;48821;48.796;2.396;2022-12-07T03:02:24;101978.06;;;5.03;67.65
62779;BME280;48821;48.796;2.396;2022-12-07T03:03:42;101971.09;;;5.01;67.44
62779;BME280;48821;48.796;2.396;2022-12-07T03:06:32;101971.06;;;4.98;67.15
62779;BME280;48821;48.796;2.396;2022-12-07T03:09:31;101963.19;;;4.93;67.34
62779;BME280;48821;48.796;2.396;2022-12-07T03:10:56;101959.66;;;4.89;67.15
62779;BME280;48821;48.796;2.396;2022-12-07T03:12:20;101957.06;;;4.88;67.31
62779;BME280;48821;48.796;2.396;2022-12-07T03:15:16;101962.25;;;4.86;67.27
62779;BME280;48821;48.796;2.396;2022-12-07T03:16:36;101959.63;;;4.84;67.40
62779;BME280;48821;48.796;2.396;2022-12-07T03:17:51;101957.91;;;4.85;67.57
62779;BME280;48821;48.796;2.396;2022-12-07T03:20:16;101954.41;;;4.84;67.25
62779;BME280;48821;48.796;2.396;2022-12-07T03:21:38;101953.53;;;4.84;67.42
62779;BME280;48821;48.796;2.396;2022-12-07T03:22:51;101956.13;;;4.84;67.35
62779;BME280;48821;48.796;2.396;2022-12-07T03:24:08;101950.91;;;4.82;67.63
62779;BME280;48821;48.796;2.396;2022-12-07T03:25:20;101954.41;;;4.81;67.11
62779;BME280;48821;48.796;2.396;2022-12-07T03:26:34;101950.91;;;4.82;66.93
62779;BME280;48821;48.796;2.396;2022-12-07T03:28:00;101943.94;;;4.80;67.05
62779;BME280;48821;48.796;2.396;2022-12-07T03:29:25;101945.66;;;4.79;67.04
62779;BME280;48821;48.796;2.396;2022-12-07T03:30:47;101943.94;;;4.78;67.29
62779;BME280;48821;48.796;2.396;2022-12-07T03:32:05;101936.97;;;4.76;66.97
62779;BME280;48821;48.796;2.396;2022-12-07T03:33:31;101929.09;;;4.72;66.73
62779;BME280;48821;48.796;2.396;2022-12-07T03:34:47;101936.03;;;4.72;67.04
62779;BME280;48821;48.796;2.396;2022-12-07T03:36:08;101929.06;;;4.69;66.86
62779;BME280;48821;48.796;2.396;2022-12-07T03:38:52;101928.16;;;4.66;66.79
62779;BME280;48821;48.796;2.396;2022-12-07T03:40:27;101931.63;;;4.63;66.23
62779;BME280;48821;48.796;2.396;2022-12-07T03:41:40;101925.53;;;4.61;66.77
62779;BME280;48821;48.796;2.396;2022-12-07T03:42:51;101930.69;;;4.58;66.51
62779;BME280;48821;48.796;2.396;2022-12-07T03:44:03;101929.81;;;4.57;66.66
62779;BME280;48821;48.796;2.396;2022-12-07T03:45:16;101927.19;;;4.56;66.72
62779;BME280;48821;48.796;2.396;2022-12-07T03:46:49;101920.22;;;4.55;66.60
62779;BME280;48821;48.796;2.396;2022-12-07T03:50:00;101918.41;;;4.47;66.51
62779;BME280;48821;48.796;2.396;2022-12-07T03:51:26;101921.88;;;4.46;66.43
62779;BME280;48821;48.796;2.396;2022-12-07T03:52:52;101921.84;;;4.45;66.56
62779;BME280;48821;48.796;2.396;2022-12-07T03:54:15;101925.28;;;4.42;66.32
62779;BME280;48821;48.796;2.396;2022-12-07T03:55:35;101921.78;;;4.40;66.71
62779;BME280;48821;48.796;2.396;2022-12-07T03:56:49;101918.31;;;4.38;66.69
62779;BME280;48821;48.796;2.396;2022-12-07T03:58:09;101919.19;;;4.37;66.87
62779;BME280;48821;48.796;2.396;2022-12-07T03:59:21;101918.28;;;4.36;66.93
62779;BME280;48821;48.796;2.396;2022-12-07T04:00:33;101921.72;;;4.34;67.36
62779;BME280;48821;48.796;2.396;2022-12-07T04:01:45;101911.31;;;4.34;66.93
62779;BME280;48821;48.796;2.396;2022-12-07T04:03:01;101914.75;;;4.33;66.78
62779;BME280;48821;48.796;2.396;2022-12-07T04:04:11;101919.09;;;4.32;66.66
62779;BME280;48821;48.796;2.396;2022-12-07T04:05:22;101917.38;;;4.33;66.99
62779;BME280;48821;48.796;2.396;2022-12-07T04:06:33;101919.09;;;4.32;67.20
62779;BME280;48821;48.796;2.396;2022-12-07T04:07:43;101922.56;;;4.33;66.82
62779;BME280;48821;48.796;2.396;2022-12-07T04:08:53;101924.28;;;4.32;67.10
62779;BME280;48821;48.796;2.396;2022-12-07T04:10:05;101916.47;;;4.31;66.80
62779;BME280;48821;48.796;2.396;2022-12-07T04:11:15;101917.34;;;4.31;67.10
62779;BME280;48821;48.796;2.396;2022-12-07T04:12:26;101923.44;;;4.32;66.79
62779;BME280;48821;48.796;2.396;2022-12-07T04:13:36;101925.16;;;4.31;66.73
62779;BME280;48821;48.796;2.396;2022-12-07T04:15:07;101926.00;;;4.30;66.98
62779;BME280;48821;48.796;2.396;2022-12-07T04:16:18;101932.97;;;4.30;66.77
62779;BME280;48821;48.796;2.396;2022-12-07T04:17:28;101923.41;;;4.28;66.85
62779;BME280;48821;48.796;2.396;2022-12-07T04:18:38;101931.19;;;4.27;66.48
62779;BME280;48821;48.796;2.396;2022-12-07T04:19:49;101929.44;;;4.27;67.12
62779;BME280;48821;48.796;2.396;2022-12-07T04:20:59;101925.94;;;4.25;66.58
62779;BME280;48821;48.796;2.396;2022-12-07T04:22:10;101925.13;;;4.26;66.74
62779;BME280;48821;48.796;2.396;2022-12-07T04:23:20;101925.13;;;4.26;67.17
62779;BME280;48821;48.796;2.396;2022-12-07T04:24:31;101918.16;;;4.25;66.90
62779;BME280;48821;48.796;2.396;2022-12-07T04:25:42;101915.53;;;4.24;66.99
62779;BME280;48821;48.796;2.396;2022-12-07T04:26:52;101915.53;;;4.24;67.28
62779;BME280;48821;48.796;2.396;2022-12-07T04:28:03;101920.75;;;4.24;66.76
62779;BME280;48821;48.796;2.396;2022-12-07T04:29:14;101914.66;;;4.23;66.83
62779;BME280;48821;48.796;2.396;2022-12-07T04:30:24;101925.94;;;4.25;67.00
62779;BME280;48821;48.796;2.396;2022-12-07T04:31:35;101921.63;;;4.24;67.05
62779;BME280;48821;48.796;2.396;2022-12-07T04:32:46;101919.88;;;4.23;66.78
62779;BME280;48821;48.796;2.396;2022-12-07T04:33:56;101920.75;;;4.24;67.07
62779;BME280;48821;48.796;2.396;2022-12-07T04:35:07;101916.38;;;4.21;67.12
62779;BME280;48821;48.796;2.396;2022-12-07T04:36:17;101925.06;;;4.23;66.96
62779;BME280;48821;48.796;2.396;2022-12-07T04:37:29;101925.94;;;4.24;67.02
62779;BME280;48821;48.796;2.396;2022-12-07T04:38:40;101919.84;;;4.22;67.01
62779;BME280;48821;48.796;2.396;2022-12-07T04:39:50;101918.09;;;4.22;66.90
62779;BME280;48821;48.796;2.396;2022-12-07T04:41:08;101920.69;;;4.22;67.12
62779;BME280;48821;48.796;2.396;2022-12-07T04:42:18;101916.38;;;4.21;67.27
62779;BME280;48821;48.796;2.396;2022-12-07T04:43:29;101912.03;;;4.22;67.03
62779;BME280;48821;48.796;2.396;2022-12-07T04:44:39;101918.09;;;4.22;66.90
62779;BME280;48821;48.796;2.396;2022-12-07T04:45:49;101916.38;;;4.21;66.93
62779;BME280;48821;48.796;2.396;2022-12-07T04:47:01;101916.38;;;4.21;67.13
62779;BME280;48821;48.796;2.396;2022-12-07T04:48:11;101916.38;;;4.21;67.23
62779;BME280;48821;48.796;2.396;2022-12-07T04:49:22;101919.81;;;4.20;67.04
62779;BME280;48821;48.796;2.396;2022-12-07T04:50:32;101918.97;;;4.20;67.13
62779;BME280;48821;48.796;2.396;2022-12-07T04:51:43;101918.97;;;4.20;67.16
62779;BME280;48821;48.796;2.396;2022-12-07T04:52:54;101923.28;;;4.19;67.30
62779;BME280;48821;48.796;2.396;2022-12-07T04:54:04;101928.50;;;4.19;67.21
62779;BME280;48821;48.796;2.396;2022-12-07T04:55:15;101920.69;;;4.19;67.47
62779;BME280;48821;48.796;2.396;2022-12-07T04:56:25;101915.47;;;4.19;67.15
62779;BME280;48821;48.796;2.396;2022-12-07T04:57:36;101916.31;;;4.18;66.87
62779;BME280;48821;48.796;2.396;2022-12-07T04:58:47;101921.56;;;4.20;67.44
62779;BME280;48821;48.796;2.396;2022-12-07T04:59:58;101924.16;;;4.20;67.15
62779;BME280;48821;48.796;2.396;2022-12-07T05:01:08;101921.53;;;4.18;66.56
62779;BME280;48821;48.796;2.396;2022-12-07T05:02:19;101918.91;;;4.18;67.17
62779;BME280;48821;48.796;2.396;2022-12-07T05:03:29;101921.53;;;4.18;67.11
62779;BME280;48821;48.796;2.396;2022-12-07T05:04:39;101919.78;;;4.17;66.98
62779;BME280;48821;48.796;2.396;2022-12-07T05:05:50;101915.44;;;4.16;66.36
62779;BME280;48821;48.796;2.396;2022-12-07T05:07:00;101921.47;;;4.15;66.59
62779;BME280;48821;48.796;2.396;2022-12-07T05:08:10;101919.75;;;4.14;67.14
62779;BME280;48821;48.796;2.396;2022-12-07T05:09:21;101927.53;;;4.12;66.85
62779;BME280;48821;48.796;2.396;2022-12-07T05:10:31;101922.34;;;4.12;66.88
62779;BME280;48821;48.796;2.396;2022-12-07T05:11:42;101917.09;;;4.11;67.02
62779;BME280;48821;48.796;2.396;2022-12-07T05:12:53;101924.91;;;4.09;66.56
62779;BME280;48821;48.796;2.396;2022-12-07T05:14:11;101914.44;;;4.08;66.59
62779;BME280;48821;48.796;2.396;2022-12-07T05:15:22;101917.91;;;4.07;66.63
62779;BME280;48821;48.796;2.396;2022-12-07T05:16:32;101916.16;;;4.05;66.59
62779;BME280;48821;48.796;2.396;2022-12-07T05:17:42;101914.44;;;4.04;66.56
62779;BME280;48821;48.796;2.396;2022-12-07T05:18:53;101919.63;;;4.04;66.44
62779;BME280;48821;48.796;2.396;2022-12-07T05:20:04;101917.03;;;4.04;67.08
62779;BME280;48821;48.796;2.396;2022-12-07T05:21:15;101915.25;;;4.02;66.58
62779;BME280;48821;48.796;2.396;2022-12-07T05:22:25;101919.63;;;4.04;66.84
62779;BME280;48821;48.796;2.396;2022-12-07T05:23:38;101917.88;;;4.03;66.56
62779;BME280;48821;48.796;2.396;2022-12-07T05:24:48;101918.75;;;4.05;67.18
62779;BME280;48821;48.796;2.396;2022-12-07T05:25:58;101927.44;;;4.04;67.18
62779;BME280;48821;48.796;2.396;2022-12-07T05:27:09;101922.25;;;4.06;66.98
62779;BME280;48821;48.796;2.396;2022-12-07T05:28:19;101922.25;;;4.06;67.29
62779;BME280;48821;48.796;2.396;2022-12-07T05:29:29;101921.41;;;4.09;67.54
62779;BME280;48821;48.796;2.396;2022-12-07T05:30:40;101928.38;;;4.10;67.60
62779;BME280;48821;48.796;2.396;2022-12-07T05:31:50;101926.66;;;4.12;67.23
62779;BME280;48821;48.796;2.396;2022-12-07T05:33:01;101931.03;;;4.14;67.32
62779;BME280;48821;48.796;2.396;2022-12-07T05:34:12;101932.78;;;4.15;67.69
62779;BME280;48821;48.796;2.396;2022-12-07T05:35:23;101925.00;;;4.17;67.54
62779;BME280;48821;48.796;2.396;2022-12-07T05:36:33;101930.22;;;4.19;67.59
62779;BME280;48821;48.796;2.396;2022-12-07T05:37:44;101929.38;;;4.21;67.40
62779;BME280;48821;48.796;2.396;2022-12-07T05:38:54;101926.78;;;4.21;67.84
62779;BME280;48821;48.796;2.396;2022-12-07T05:40:05;101930.28;;;4.23;67.72
62779;BME280;48821;48.796;2.396;2022-12-07T05:41:18;101933.81;;;4.27;67.51
62779;BME280;48821;48.796;2.396;2022-12-07T05:42:47;101934.66;;;4.27;68.04
62779;BME280;48821;48.796;2.396;2022-12-07T05:43:57;101927.72;;;4.28;67.94
62779;BME280;48821;48.796;2.396;2022-12-07T05:45:08;101925.16;;;4.30;67.71
62779;BME280;48821;48.796;2.396;2022-12-07T05:46:19;101924.28;;;4.32;67.82
62779;BME280;48821;48.796;2.396;2022-12-07T05:47:29;101923.47;;;4.35;68.26
62779;BME280;48821;48.796;2.396;2022-12-07T05:48:40;101926.09;;;4.36;68.25
62779;BME280;48821;48.796;2.396;2022-12-07T05:49:50;101917.41;;;4.37;67.89
62779;BME280;48821;48.796;2.396;2022-12-07T05:51:00;101917.47;;;4.41;68.00
62779;BME280;48821;48.796;2.396;2022-12-07T05:52:11;101920.06;;;4.42;68.34
62779;BME280;48821;48.796;2.396;2022-12-07T05:53:21;101914.91;;;4.45;68.46
62779;BME280;48821;48.796;2.396;2022-12-07T05:54:32;101921.00;;;4.47;68.14
62779;BME280;48821;48.796;2.396;2022-12-07T05:55:43;101923.66;;;4.50;68.14
62779;BME280;48821;48.796;2.396;2022-12-07T05:56:53;101917.59;;;4.52;68.28
62779;BME280;48821;48.796;2.396;2022-12-07T05:58:03;101918.50;;;4.54;68.25
62779;BME280;48821;48.796;2.396;2022-12-07T05:59:32;101920.25;;;4.56;68.53
62779;BME280;48821;48.796;2.396;2022-12-07T06:00:43;101914.19;;;4.57;68.19
62779;BME280;48821;48.796;2.396;2022-12-07T06:02:00;101914.22;;;4.59;68.08
62779;BME280;48821;48.796;2.396;2022-12-07T06:03:11;101912.47;;;4.59;68.19
62779;BME280;48821;48.796;2.396;2022-12-07T06:04:22;101917.72;;;4.63;68.66
62779;BME280;48821;48.796;2.396;2022-12-07T06:05:33;101914.25;;;4.64;68.00
62779;BME280;48821;48.796;2.396;2022-12-07T06:06:43;101912.53;;;4.66;68.53
62779;BME280;48821;48.796;2.396;2022-12-07T06:07:54;101917.75;;;4.67;68.29
62779;BME280;48821;48.796;2.396;2022-12-07T06:09:04;101926.47;;;4.69;68.43
62779;BME280;48821;48.796;2.396;2022-12-07T06:10:14;101916.03;;;4.69;68.12
62779;BME280;48821;48.796;2.396;2022-12-07T06:11:25;101918.69;;;4.71;68.08
62779;BME280;48821;48.796;2.396;2022-12-07T06:12:54;101916.13;;;4.74;68.67
62779;BME280;48821;48.796;2.396;2022-12-07T06:14:04;101917.00;;;4.76;68.35
62779;BME280;48821;48.796;2.396;2022-12-07T06:15:15;101910.03;;;4.77;68.54
62779;BME280;48821;48.796;2.396;2022-12-07T06:16:25;101921.38;;;4.79;67.89
62779;BME280;48821;48.796;2.396;2022-12-07T06:17:36;101912.69;;;4.78;68.34
62779;BME280;48821;48.796;2.396;2022-12-07T06:18:46;101917.03;;;4.81;68.33
62779;BME280;48821;48.796;2.396;2022-12-07T06:19:57;101917.94;;;4.81;67.72
62779;BME280;48821;48.796;2.396;2022-12-07T06:21:07;101917.94;;;4.83;67.73
62779;BME280;48821;48.796;2.396;2022-12-07T06:22:18;101921.41;;;4.83;68.23
62779;BME280;48821;48.796;2.396;2022-12-07T06:23:28;101911.84;;;4.84;67.95
62779;BME280;48821;48.796;2.396;2022-12-07T06:24:39;101919.69;;;4.86;67.90
62779;BME280;48821;48.796;2.396;2022-12-07T06:25:50;101922.25;;;4.84;67.92
62779;BME280;48821;48.796;2.396;2022-12-07T06:27:00;101925.78;;;4.86;68.17
62779;BME280;48821;48.796;2.396;2022-12-07T06:28:10;101921.41;;;4.85;68.12
62779;BME280;48821;48.796;2.396;2022-12-07T06:29:21;101921.41;;;4.87;67.58
62779;BME280;48821;48.796;2.396;2022-12-07T06:30:32;101929.28;;;4.88;68.03
62779;BME280;48821;48.796;2.396;2022-12-07T06:31:42;101923.19;;;4.89;68.37
62779;BME280;48821;48.796;2.396;2022-12-07T06:32:53;101921.47;;;4.90;68.23
62779;BME280;48821;48.796;2.396;2022-12-07T06:34:08;101925.78;;;4.89;68.02
62779;BME280;48821;48.796;2.396;2022-12-07T06:35:18;101923.19;;;4.89;67.86
62779;BME280;48821;48.796;2.396;2022-12-07T06:36:29;101914.53;;;4.90;68.29
62779;BME280;48821;48.796;2.396;2022-12-07T06:37:39;101922.34;;;4.90;68.16
62779;BME280;48821;48.796;2.396;2022-12-07T06:38:50;101921.50;;;4.91;68.21
62779;BME280;48821;48.796;2.396;2022-12-07T06:40:00;101920.63;;;4.92;68.07
62779;BME280;48821;48.796;2.396;2022-12-07T06:41:10;101919.75;;;4.92;68.17
62779;BME280;48821;48.796;2.396;2022-12-07T06:42:21;101917.16;;;4.93;68.07
62779;BME280;48821;48.796;2.396;2022-12-07T06:43:31;101917.16;;;4.93;67.94
62779;BME280;48821;48.796;2.396;2022-12-07T06:44:42;101918.91;;;4.94;68.13
62779;BME280;48821;48.796;2.396;2022-12-07T06:45:52;101920.66;;;4.95;68.22
62779;BME280;48821;48.796;2.396;2022-12-07T06:47:02;101923.25;;;4.95;68.15
62779;BME280;48821;48.796;2.396;2022-12-07T06:48:13;101922.38;;;4.97;67.82
62779;BME280;48821;48.796;2.396;2022-12-07T06:49:24;101934.56;;;4.98;67.77
62779;BME280;48821;48.796;2.396;2022-12-07T06:50:34;101929.34;;;4.98;67.44
62779;BME280;48821;48.796;2.396;2022-12-07T06:51:44;101931.09;;;4.95;67.77
62779;BME280;48821;48.796;2.396;2022-12-07T06:52:55;101936.28;;;4.95;68.05
62779;BME280;48821;48.796;2.396;2022-12-07T06:54:05;101936.28;;;4.95;67.93